Greenville, SC (29605)

9:45 PM EDT on July 25, 2016 (GMT -0400)
Augusta Rd / Riverside Dr Area | | Change Station

Elev 967 ft 34.81 °N, 82.38 °W | Updated 1 minute ago

Scattered Clouds
Scattered Clouds
84.9 °F
Feels Like 91 °F
N
0.0
Wind Variable Wind from West
Gusts 1.0 mph

Today
High -- | Low -- °F
--% Chance of Precip.
Yesterday
High -- | Low -- °F
Precip. -- in
Pressure 30.01 in
Visibility 10.0 miles
Clouds Scattered Clouds 6500 ft
Heat Index 91 °F
Dew Point 72 °F
Humidity 65%
Rainfall 0.00 in
Snow Depth Not available.
6:34 AM 8:37 PM
Waning Gibbous, 60% visible
METAR KGYH 260047Z 25005KT 10SM SCT065 31/22 A3001 RMK LAST
Pressure 30.01 in
Visibility 10.0 miles
Clouds Scattered Clouds 6500 ft
Heat Index 91 °F
Dew Point 72 °F
Humidity 65%
Rainfall 0.00 in
Snow Depth Not available.
6:34 AM 8:37 PM
Waning Gibbous, 60% visible
METAR KGYH 260047Z 25005KT 10SM SCT065 31/22 A3001 RMK LAST
Record highs are possible for parts of the Northeast Monday and Tuesday, as parts of the central U.S. take a little breather from the worst of summer's dog day heat.

Expansive high pressure in the upper atmosphere will focus on parts of the East and West this week, sending heat indices well into the triple digits from the Mid-Atlantic states into the South.

10-Day Weather Forecast

Almanac

Astronomy

Jul. 25, 2016 Rise Set
Actual Time
Civil Twilight
Nautical Twilight
Astronomical Twilight
Moon
Length of Visible Light
Length of Day
Tomorrow will be .
, % of the Moon is Illuminated

Today's Extremes

State Highs State Lows

Community

WunderPhotos

Upload Photos

1,927,497 photos uploaded!

WunderBlog® & News

Nearby

Air Quality

  Air Quality AQ Index Pollutant
Not available.

Snow Depth

Station Depth Elevation

Earthquake Activity

City Distance Mag. Time & Date
Minimum magnitude displayed is 2.5.

Coastal Water Temperatures

Place Temperature

Stations

Nearby Weather Stations

Station Location Temp. Windchill Dew Point Humidity Wind Precip. Elev Updated Type
                   

Watches & Warnings

There are currently no watches in effect.